Time;durP1;ratioP1;P1;durP2;ratioP2;P2;SDS_P1;SDS_P2;PMS_P1;PMS_P2;Temp;Humidity;BMP_temperature;BMP_pressure;BME280_temperature;BME280_humidity;BME280_pressure;Samples;Min_cycle;Max_cycle;Signal;HPM_P1;HPM_P2
2023/06/02 00:00:39;;;;;;;11.20;10.70;;;19.20;97.30;;;;;;4904621;29;21015;-83
2023/06/02 00:03:08;;;;;;;11.67;11.17;;;19.20;97.00;;;;;;4909429;29;20474;-82
2023/06/02 00:05:38;;;;;;;11.87;11.27;;;19.10;98.20;;;;;;4908668;29;20479;-82
2023/06/02 00:08:08;;;;;;;11.67;11.07;;;19.20;97.30;;;;;;4908431;29;20458;-82
2023/06/02 00:10:36;;;;;;;12.03;11.23;;;19.10;97.60;;;;;;4908612;29;20469;-82
2023/06/02 00:13:04;;;;;;;12.00;11.40;;;19.10;98.30;;;;;;4907659;29;20492;-82
2023/06/02 00:15:33;;;;;;;13.00;12.23;;;19.10;97.20;;;;;;4909511;29;20472;-82
2023/06/02 00:18:01;;;;;;;11.07;10.57;;;19.00;98.40;;;;;;4906972;29;20728;-81
2023/06/02 00:20:31;;;;;;;12.10;11.40;;;18.90;99.90;;;;;;4909311;29;20835;-82
2023/06/02 00:23:00;;;;;;;11.33;10.83;;;18.90;96.20;;;;;;4909871;29;21024;-82
2023/06/02 00:25:30;;;;;;;10.60;10.00;;;18.90;96.70;;;;;;4909055;29;20461;-83
2023/06/02 00:27:58;;;;;;;11.53;10.80;;;18.90;96.10;;;;;;4906448;29;20454;-82
2023/06/02 00:30:27;;;;;;;11.70;11.20;;;18.90;95.60;;;;;;4906647;29;20460;-81
2023/06/02 00:32:56;;;;;;;12.50;11.70;;;18.70;93.90;;;;;;4904907;29;20489;-82
2023/06/02 00:35:25;;;;;;;11.10;10.50;;;18.70;94.00;;;;;;4906900;29;20454;-82
2023/06/02 00:37:53;;;;;;;11.00;10.50;;;18.70;93.20;;;;;;4904453;29;20639;-82
2023/06/02 00:40:22;;;;;;;10.47;10.07;;;18.70;91.90;;;;;;4907637;29;20489;-82
2023/06/02 00:42:51;;;;;;;11.77;11.00;;;18.60;91.10;;;;;;4904950;29;20919;-83
2023/06/02 00:45:20;;;;;;;10.80;10.23;;;18.70;91.70;;;;;;4906463;29;20461;-83
2023/06/02 00:47:48;;;;;;;10.60;10.00;;;18.70;92.20;;;;;;4919504;29;20472;-82
2023/06/02 00:50:16;;;;;;;10.57;10.07;;;18.70;91.90;;;;;;4907882;29;20468;-82
2023/06/02 00:52:47;;;;;;;10.53;10.03;;;18.60;91.00;;;;;;4907214;29;20488;-82
2023/06/02 00:55:15;;;;;;;10.73;10.23;;;18.60;90.20;;;;;;4907065;29;20462;-82
2023/06/02 00:57:43;;;;;;;10.87;10.20;;;18.60;90.30;;;;;;4921067;29;20553;-82
2023/06/02 01:00:14;;;;;;;11.20;10.43;;;18.50;89.20;;;;;;4905359;29;20486;-83
2023/06/02 01:02:42;;;;;;;10.10;9.60;;;18.50;87.50;;;;;;4906462;29;21137;-82
2023/06/02 01:05:12;;;;;;;10.20;9.60;;;18.50;86.20;;;;;;4906559;29;21289;-82
2023/06/02 01:07:44;;;;;;;10.27;9.70;;;18.40;85.70;;;;;;4899826;29;20462;-82
2023/06/02 01:10:16;;;;;;;10.83;10.27;;;18.40;87.00;;;;;;4909082;29;20965;-82
2023/06/02 01:12:45;;;;;;;10.13;9.73;;;18.40;88.80;;;;;;4910656;29;20484;-81
2023/06/02 01:15:15;;;;;;;11.20;10.50;;;18.40;89.20;;;;;;4908982;29;20458;-82
2023/06/02 01:17:45;;;;;;;10.83;10.27;;;18.40;88.80;;;;;;4905694;29;20967;-82
2023/06/02 01:20:15;;;;;;;10.40;9.80;;;18.40;88.80;;;;;;4922806;29;20932;-82
2023/06/02 01:22:56;;;;;;;10.77;10.27;;;18.30;88.80;;;;;;4910028;29;20469;-82
2023/06/02 01:25:27;;;;;;;11.30;10.70;;;18.30;89.80;;;;;;4908188;29;20465;-82
2023/06/02 01:27:59;;;;;;;10.00;9.40;;;18.30;89.80;;;;;;4908602;29;20491;-82
2023/06/02 01:30:27;;;;;;;10.80;10.20;;;18.20;89.80;;;;;;4909823;29;20449;-82
2023/06/02 01:33:04;;;;;;;10.20;9.80;;;18.10;87.00;;;;;;4909482;29;21193;-83
2023/06/02 01:35:38;;;;;;;10.80;10.10;;;18.10;86.30;;;;;;4910056;29;20961;-82
2023/06/02 01:38:07;;;;;;;10.30;9.80;;;18.10;86.30;;;;;;4902579;29;20454;-82
2023/06/02 01:40:37;;;;;;;10.67;9.97;;;18.10;86.80;;;;;;4909838;29;20478;-82
2023/06/02 01:43:07;;;;;;;10.73;10.07;;;18.10;86.10;;;;;;4910046;29;20568;-82
2023/06/02 01:45:36;;;;;;;9.93;9.33;;;18.10;85.60;;;;;;4910360;29;20727;-82
2023/06/02 01:48:06;;;;;;;10.67;10.17;;;18.00;85.60;;;;;;4924895;29;20480;-82
2023/06/02 01:50:35;;;;;;;10.03;9.63;;;18.00;86.60;;;;;;4911128;29;20449;-82
2023/06/02 01:53:04;;;;;;;10.13;9.63;;;18.00;86.70;;;;;;4908270;29;20481;-82
2023/06/02 01:55:32;;;;;;;10.13;9.63;;;18.00;84.90;;;;;;4909521;29;20503;-82
2023/06/02 01:58:02;;;;;;;11.27;10.57;;;17.90;84.20;;;;;;4908051;29;20553;-82
2023/06/02 02:00:31;;;;;;;9.90;9.50;;;17.90;83.70;;;;;;4907938;29;20487;-82
2023/06/02 02:02:59;;;;;;;11.53;10.83;;;17.90;85.30;;;;;;4909991;29;20492;-81
2023/06/02 02:05:27;;;;;;;11.17;10.40;;;17.90;88.10;;;;;;4910444;29;20449;-82
2023/06/02 02:07:56;;;;;;;9.90;9.40;;;17.90;86.40;;;;;;4907536;29;20466;-82
2023/06/02 02:10:24;;;;;;;11.07;10.47;;;17.90;87.00;;;;;;4906637;29;20959;-82
2023/06/02 02:12:53;;;;;;;10.00;9.50;;;17.80;85.80;;;;;;4908139;29;20568;-82
2023/06/02 02:15:23;;;;;;;10.17;9.67;;;17.80;85.80;;;;;;4911037;29;20473;-81
2023/06/02 02:17:51;;;;;;;10.17;9.67;;;17.80;86.40;;;;;;4908439;29;20472;-82
2023/06/02 02:20:19;;;;;;;11.00;10.30;;;17.80;86.20;;;;;;4907290;29;20493;-82
2023/06/02 02:22:48;;;;;;;10.13;9.60;;;17.80;86.30;;;;;;4909014;29;20477;-82
2023/06/02 02:25:16;;;;;;;11.23;10.63;;;17.80;90.20;;;;;;4909621;29;20477;-82
2023/06/02 02:27:44;;;;;;;11.47;10.87;;;17.70;84.40;;;;;;4909670;29;20457;-81
2023/06/02 02:30:12;;;;;;;11.70;11.00;;;17.70;85.70;;;;;;4909186;29;20446;-83
2023/06/02 02:32:45;;;;;;;10.93;10.43;;;17.70;87.10;;;;;;4909387;29;20495;-82
2023/06/02 02:35:13;;;;;;;10.80;10.03;;;17.60;87.00;;;;;;4911010;29;20450;-82
2023/06/02 02:37:41;;;;;;;12.50;11.43;;;17.70;87.10;;;;;;4909286;29;20480;-82
2023/06/02 02:40:15;;;;;;;11.87;11.13;;;17.60;86.80;;;;;;4909178;29;20489;-82
2023/06/02 02:42:43;;;;;;;11.10;10.60;;;17.60;86.80;;;;;;4910099;29;20537;-82
2023/06/02 02:45:11;;;;;;;11.83;11.00;;;17.60;85.90;;;;;;4906229;29;20458;-82
2023/06/02 02:47:39;;;;;;;12.23;11.40;;;17.60;88.60;;;;;;4908983;29;20469;-82
2023/06/02 02:50:10;;;;;;;11.80;11.00;;;17.60;88.50;;;;;;4909704;29;20461;-82
2023/06/02 02:52:38;;;;;;;11.30;10.70;;;17.50;86.90;;;;;;4909475;29;20474;-82
2023/06/02 02:55:07;;;;;;;10.90;10.40;;;17.50;86.40;;;;;;4910572;29;20460;-81
2023/06/02 02:57:35;;;;;;;11.87;11.27;;;17.40;87.70;;;;;;4909905;29;20475;-81
2023/06/02 03:00:05;;;;;;;11.50;11.00;;;17.40;88.40;;;;;;4909143;29;20493;-82
2023/06/02 03:02:35;;;;;;;11.23;10.37;;;17.40;88.40;;;;;;4909579;29;20484;-82
2023/06/02 03:05:03;;;;;;;12.23;11.53;;;17.40;89.60;;;;;;4909121;29;20457;-82
2023/06/02 03:07:34;;;;;;;11.77;10.97;;;17.30;89.10;;;;;;4907746;29;21010;-82
2023/06/02 03:10:02;;;;;;;11.90;11.30;;;17.30;89.00;;;;;;4906691;29;20458;-81
2023/06/02 03:12:30;;;;;;;11.30;10.70;;;17.20;88.10;;;;;;4909072;29;21045;-81
2023/06/02 03:14:58;;;;;;;12.27;11.33;;;17.20;98.10;;;;;;4908962;29;20469;-81
2023/06/02 03:17:27;;;;;;;12.13;11.43;;;17.20;89.00;;;;;;4909386;29;20458;-81
2023/06/02 03:19:56;;;;;;;11.57;10.77;;;17.10;90.20;;;;;;4907101;29;20504;-82
2023/06/02 03:22:24;;;;;;;12.13;11.37;;;17.10;90.80;;;;;;4908935;29;21090;-82
2023/06/02 03:24:54;;;;;;;11.47;10.83;;;17.10;90.80;;;;;;4910053;29;20473;-82
2023/06/02 03:27:22;;;;;;;11.57;10.83;;;17.10;91.30;;;;;;4909330;29;20472;-82
2023/06/02 03:29:50;;;;;;;11.53;10.87;;;17.10;91.10;;;;;;4907987;29;20469;-82
2023/06/02 03:32:18;;;;;;;11.83;11.23;;;17.00;92.40;;;;;;4909527;29;21167;-82
2023/06/02 03:34:46;;;;;;;11.93;11.20;;;17.10;93.00;;;;;;4907640;29;20510;-82
2023/06/02 03:37:14;;;;;;;11.47;10.77;;;17.00;93.00;;;;;;4909244;29;20453;-82
2023/06/02 03:39:42;;;;;;;11.53;11.00;;;17.00;93.80;;;;;;4909121;29;21225;-82
2023/06/02 03:42:11;;;;;;;12.63;11.93;;;17.00;94.00;;;;;;4909374;29;21371;-82
2023/06/02 03:44:39;;;;;;;11.97;11.27;;;17.10;94.80;;;;;;4908860;29;20464;-82
2023/06/02 03:47:08;;;;;;;12.13;11.43;;;17.10;94.70;;;;;;4907944;29;20461;-82
2023/06/02 03:49:36;;;;;;;12.30;11.50;;;17.00;95.20;;;;;;4906606;29;20464;-82
2023/06/02 03:52:05;;;;;;;12.37;11.30;;;17.00;95.70;;;;;;4907279;29;20464;-83
2023/06/02 03:54:33;;;;;;;10.83;10.20;;;17.00;96.00;;;;;;4908983;29;20464;-82
2023/06/02 03:57:01;;;;;;;11.93;11.13;;;17.00;96.30;;;;;;4908420;29;20468;-82
2023/06/02 03:59:31;;;;;;;11.90;11.20;;;17.00;96.90;;;;;;4907499;29;20490;-82
2023/06/02 04:01:59;;;;;;;11.80;11.20;;;16.90;97.30;;;;;;4903168;29;20454;-81
2023/06/02 04:04:27;;;;;;;11.87;11.00;;;16.90;98.50;;;;;;4907973;29;20475;-83
2023/06/02 04:06:57;;;;;;;11.03;10.37;;;16.90;98.10;;;;;;4906145;29;20451;-81
2023/06/02 04:09:25;;;;;;;12.13;11.33;;;16.90;97.90;;;;;;4905429;29;21134;-82
2023/06/02 04:11:53;;;;;;;11.43;10.93;;;16.80;99.20;;;;;;4906860;29;20458;-82
2023/06/02 04:14:21;;;;;;;11.90;11.30;;;16.80;99.20;;;;;;4907004;29;20474;-82
2023/06/02 04:16:52;;;;;;;13.20;12.20;;;16.90;99.50;;;;;;4905749;29;20915;-82
2023/06/02 04:19:20;;;;;;;12.63;11.77;;;16.90;99.40;;;;;;4907651;29;20459;-82
2023/06/02 04:21:48;;;;;;;12.50;11.70;;;16.90;99.30;;;;;;4906864;29;20475;-82
2023/06/02 04:24:16;;;;;;;12.70;11.93;;;16.80;99.90;;;;;;4901594;29;21237;-82
2023/06/02 04:26:47;;;;;;;13.27;12.27;;;16.80;99.90;;;;;;4908205;29;20464;-82
2023/06/02 04:29:16;;;;;;;13.50;12.60;;;16.80;99.90;;;;;;4906921;29;20458;-82
2023/06/02 04:31:47;;;;;;;12.53;11.83;;;16.80;99.90;;;;;;4907811;29;20473;-82
2023/06/02 04:34:17;;;;;;;12.37;11.70;;;16.80;99.90;;;;;;4907532;29;20496;-82
2023/06/02 04:36:45;;;;;;;12.30;11.60;;;16.80;99.90;;;;;;4907115;29;20987;-82
2023/06/02 04:39:13;;;;;;;12.60;11.77;;;16.80;99.90;;;;;;4909237;29;20444;-83
2023/06/02 04:41:42;;;;;;;13.83;12.93;;;16.90;99.90;;;;;;4908490;29;20579;-82
2023/06/02 04:44:16;;;;;;;12.80;12.10;;;16.80;99.90;;;;;;4911263;29;21182;-82
2023/06/02 04:46:45;;;;;;;13.70;12.70;;;16.80;99.90;;;;;;4910568;29;20457;-81
2023/06/02 04:49:13;;;;;;;12.50;11.80;;;16.80;99.90;;;;;;4909263;29;20460;-82
2023/06/02 04:51:42;;;;;;;13.23;12.33;;;16.70;99.90;;;;;;4912026;29;20457;-82
2023/06/02 04:54:10;;;;;;;13.87;13.07;;;16.80;99.90;;;;;;4910859;29;20588;-81
2023/06/02 04:56:39;;;;;;;14.30;13.50;;;16.80;99.90;;;;;;4910826;29;20476;-82
2023/06/02 04:59:07;;;;;;;13.57;12.70;;;16.80;99.90;;;;;;4910183;29;20845;-82
2023/06/02 05:01:38;;;;;;;14.37;13.37;;;16.90;99.90;;;;;;4911100;29;21118;-83
2023/06/02 05:04:06;;;;;;;14.27;13.23;;;16.80;99.90;;;;;;4908773;29;20562;-83
2023/06/02 05:06:34;;;;;;;14.53;13.53;;;16.70;99.90;;;;;;4910451;29;20479;-81
2023/06/02 05:09:04;;;;;;;15.13;13.83;;;16.70;99.90;;;;;;4909513;29;20462;-81
2023/06/02 05:11:32;;;;;;;14.47;13.57;;;16.70;99.90;;;;;;4911717;29;20463;-81
2023/06/02 05:14:00;;;;;;;14.67;13.77;;;16.70;99.90;;;;;;4911530;29;20487;-82
2023/06/02 05:16:29;;;;;;;15.93;14.57;;;16.80;99.90;;;;;;4911510;29;20475;-82
2023/06/02 05:18:58;;;;;;;14.77;13.87;;;16.80;99.90;;;;;;4900967;29;21156;-82
2023/06/02 05:21:28;;;;;;;15.83;14.90;;;16.90;99.90;;;;;;4911605;29;21178;-81
2023/06/02 05:23:58;;;;;;;15.60;14.50;;;16.80;99.90;;;;;;4912453;29;20480;-82
2023/06/02 05:26:27;;;;;;;14.10;13.40;;;16.80;99.90;;;;;;4912007;29;20457;-82
2023/06/02 05:28:57;;;;;;;14.57;13.77;;;16.90;99.90;;;;;;4911082;29;20533;-82
2023/06/02 05:31:25;;;;;;;15.30;14.23;;;16.80;99.90;;;;;;4912205;29;20487;-81
2023/06/02 05:33:53;;;;;;;16.33;14.97;;;16.70;99.90;;;;;;4908265;29;20485;-81
2023/06/02 05:36:21;;;;;;;15.13;13.90;;;16.70;99.90;;;;;;4909990;29;20497;-82
2023/06/02 05:38:49;;;;;;;14.57;13.70;;;16.80;99.90;;;;;;4910664;29;20962;-81
2023/06/02 05:41:17;;;;;;;14.50;13.70;;;16.80;99.90;;;;;;4909658;29;20575;-82
2023/06/02 05:43:47;;;;;;;15.47;14.37;;;16.90;99.90;;;;;;4908746;29;20589;-81
2023/06/02 05:46:15;;;;;;;15.80;14.87;;;16.90;99.90;;;;;;4912189;29;20453;-82
2023/06/02 05:48:43;;;;;;;15.73;14.73;;;17.00;99.90;;;;;;4908714;29;20477;-82
2023/06/02 05:51:11;;;;;;;14.73;13.90;;;17.00;99.90;;;;;;4910778;29;20480;-82
2023/06/02 05:53:39;;;;;;;14.73;13.80;;;17.10;99.90;;;;;;4910602;29;20585;-82
2023/06/02 05:56:07;;;;;;;15.87;14.80;;;17.10;99.90;;;;;;4910138;29;20456;-82
2023/06/02 05:58:38;;;;;;;16.40;15.40;;;17.10;99.90;;;;;;4910434;29;20460;-81
2023/06/02 06:01:09;;;;;;;15.47;14.47;;;17.00;99.90;;;;;;4910757;29;20862;-81
2023/06/02 06:03:37;;;;;;;16.73;15.60;;;17.00;99.90;;;;;;4911511;29;20487;-81
2023/06/02 06:06:05;;;;;;;16.17;15.27;;;17.00;99.90;;;;;;4911962;29;20571;-82
2023/06/02 06:08:33;;;;;;;16.57;15.30;;;17.10;99.90;;;;;;4910315;29;20457;-81
2023/06/02 06:11:01;;;;;;;15.83;14.90;;;17.10;99.90;;;;;;4911983;29;20449;-82
2023/06/02 06:13:30;;;;;;;15.93;14.83;;;17.10;99.90;;;;;;4911186;29;20481;-82
2023/06/02 06:15:58;;;;;;;16.73;15.50;;;17.20;99.90;;;;;;4908864;29;20463;-82
2023/06/02 06:18:27;;;;;;;16.33;15.53;;;17.30;99.90;;;;;;4911294;29;20552;-81
2023/06/02 06:20:55;;;;;;;18.00;16.90;;;17.30;99.90;;;;;;4909450;29;20496;-81
2023/06/02 06:23:24;;;;;;;16.13;15.17;;;17.30;99.90;;;;;;4910156;29;20478;-81
2023/06/02 06:25:53;;;;;;;16.90;15.70;;;17.40;99.90;;;;;;4910733;29;20481;-82
2023/06/02 06:28:21;;;;;;;17.93;16.63;;;17.40;99.90;;;;;;4908881;29;21280;-82
2023/06/02 06:30:50;;;;;;;16.23;15.13;;;17.50;99.90;;;;;;4910129;29;20457;-82
2023/06/02 06:33:18;;;;;;;16.80;15.57;;;17.50;99.90;;;;;;4909254;29;20465;-82
2023/06/02 06:35:48;;;;;;;17.57;16.20;;;17.60;99.90;;;;;;4905938;29;20496;-82
2023/06/02 06:38:16;;;;;;;17.57;16.53;;;17.60;99.90;;;;;;4910047;29;20465;-82
2023/06/02 06:40:44;;;;;;;18.17;16.93;;;17.80;99.90;;;;;;4908501;29;20462;-83
2023/06/02 06:43:15;;;;;;;16.73;15.63;;;17.90;99.90;;;;;;4907633;29;20535;-82
2023/06/02 06:45:51;;;;;;;17.60;16.60;;;18.00;99.90;;;;;;4907176;29;20888;-82
2023/06/02 06:48:19;;;;;;;17.87;16.67;;;18.10;99.90;;;;;;4907159;29;20876;-82
2023/06/02 06:50:49;;;;;;;16.43;15.53;;;18.20;99.90;;;;;;4909810;29;20494;-81
2023/06/02 06:53:18;;;;;;;17.40;16.30;;;18.20;99.90;;;;;;4909902;29;20489;-81
2023/06/02 06:55:47;;;;;;;17.00;16.10;;;18.30;99.90;;;;;;4908045;29;20466;-81
2023/06/02 06:58:15;;;;;;;24.90;22.30;;;18.40;99.90;;;;;;4910384;29;20458;-81
2023/06/02 07:00:43;;;;;;;19.67;17.90;;;18.50;99.90;;;;;;4909458;29;20988;-82
2023/06/02 07:03:12;;;;;;;17.77;16.67;;;18.60;99.90;;;;;;4911532;29;20486;-82
2023/06/02 07:05:42;;;;;;;17.77;16.50;;;18.50;99.90;;;;;;4909789;29;20481;-83
2023/06/02 07:08:11;;;;;;;17.27;16.37;;;18.50;99.90;;;;;;4908321;29;20987;-82
2023/06/02 07:10:40;;;;;;;18.87;17.67;;;18.50;99.90;;;;;;4908737;29;20459;-81
2023/06/02 07:13:08;;;;;;;17.30;16.10;;;18.60;99.90;;;;;;4910049;29;20601;-82
2023/06/02 07:15:37;;;;;;;17.17;16.07;;;18.70;99.90;;;;;;4909825;29;20529;-81
2023/06/02 07:18:05;;;;;;;18.23;17.00;;;18.60;99.90;;;;;;4910752;29;20953;-82
2023/06/02 07:20:33;;;;;;;17.63;16.63;;;18.60;99.90;;;;;;4909437;29;20469;-81
2023/06/02 07:23:02;;;;;;;17.40;16.40;;;18.70;99.90;;;;;;4908323;29;20490;-81
2023/06/02 07:25:31;;;;;;;17.70;16.60;;;18.70;99.90;;;;;;4909822;29;20701;-81
2023/06/02 07:28:00;;;;;;;17.93;16.90;;;18.70;99.90;;;;;;4908231;29;20454;-82
2023/06/02 07:30:28;;;;;;;18.10;16.90;;;18.70;99.90;;;;;;4908152;29;20476;-82
2023/06/02 07:32:56;;;;;;;17.77;16.77;;;18.80;99.90;;;;;;4909695;29;20557;-82
2023/06/02 07:35:25;;;;;;;18.70;17.40;;;18.80;99.90;;;;;;4909366;29;20513;-81
2023/06/02 07:37:53;;;;;;;18.00;16.93;;;18.80;99.90;;;;;;4908048;29;20454;-82
2023/06/02 07:40:22;;;;;;;18.13;17.03;;;18.90;99.90;;;;;;4907277;29;20848;-82
2023/06/02 07:42:51;;;;;;;17.30;16.40;;;19.00;99.90;;;;;;4908510;29;20646;-82
2023/06/02 07:45:19;;;;;;;18.03;16.53;;;19.10;99.90;;;;;;4908489;29;20465;-82
2023/06/02 07:47:47;;;;;;;17.80;16.70;;;19.10;99.90;;;;;;4919394;29;20443;-82
2023/06/02 07:50:16;;;;;;;17.60;16.40;;;19.20;99.90;;;;;;4907090;29;20454;-82
2023/06/02 07:52:44;;;;;;;17.87;16.87;;;19.20;99.90;;;;;;4906154;29;20538;-82
2023/06/02 07:55:13;;;;;;;17.70;16.80;;;19.30;99.90;;;;;;4908557;29;20494;-82
2023/06/02 07:57:41;;;;;;;17.63;16.60;;;19.30;99.90;;;;;;4906961;29;20473;-82
2023/06/02 08:00:12;;;;;;;18.20;17.20;;;19.20;99.90;;;;;;4906459;29;20461;-82
2023/06/02 08:02:40;;;;;;;18.30;17.20;;;19.30;99.90;;;;;;4907908;29;20485;-81
2023/06/02 08:05:09;;;;;;;17.63;16.73;;;19.40;99.90;;;;;;4906435;29;20458;-82
2023/06/02 08:07:38;;;;;;;18.13;17.07;;;19.40;99.90;;;;;;4906922;29;20456;-82
2023/06/02 08:10:08;;;;;;;18.50;17.40;;;19.40;99.90;;;;;;4907977;29;20469;-82
2023/06/02 08:12:36;;;;;;;17.90;17.00;;;19.50;99.90;;;;;;4908583;29;20481;-82
2023/06/02 08:15:06;;;;;;;18.53;17.50;;;19.60;99.90;;;;;;4909144;29;20464;-81
2023/06/02 08:17:35;;;;;;;18.77;17.57;;;19.60;99.90;;;;;;4913256;29;21011;-82
2023/06/02 08:20:06;;;;;;;18.67;17.67;;;19.60;99.90;;;;;;4913216;29;20525;-83
2023/06/02 08:22:36;;;;;;;18.97;17.60;;;19.60;99.90;;;;;;4927739;29;20529;-81
2023/06/02 08:25:04;;;;;;;18.47;17.50;;;19.70;99.90;;;;;;4913195;29;20454;-81
2023/06/02 08:27:33;;;;;;;18.50;17.30;;;19.70;99.90;;;;;;4912333;29;20508;-82
2023/06/02 08:30:01;;;;;;;18.83;17.60;;;19.80;99.90;;;;;;4912290;29;20453;-82
2023/06/02 08:32:30;;;;;;;19.13;17.83;;;19.80;99.90;;;;;;4912320;29;20549;-82
2023/06/02 08:35:01;;;;;;;18.37;17.33;;;19.80;99.90;;;;;;4912925;29;20461;-81
2023/06/02 08:37:32;;;;;;;18.00;17.00;;;19.90;99.90;;;;;;4911001;29;20493;-82
2023/06/02 08:40:00;;;;;;;18.13;17.23;;;19.90;99.90;;;;;;4911701;29;20971;-82
2023/06/02 08:42:28;;;;;;;20.20;19.00;;;19.90;99.90;;;;;;4911614;29;20882;-82
2023/06/02 08:44:57;;;;;;;18.40;17.40;;;20.00;99.90;;;;;;4911690;29;20644;-81
2023/06/02 08:47:27;;;;;;;18.47;17.50;;;20.00;99.90;;;;;;4911540;29;20975;-82
2023/06/02 08:49:56;;;;;;;18.27;17.27;;;20.00;99.90;;;;;;4911119;29;20993;-82
2023/06/02 08:52:27;;;;;;;17.60;16.70;;;20.10;99.90;;;;;;4911213;29;21097;-81
2023/06/02 08:54:56;;;;;;;19.93;18.83;;;20.10;99.90;;;;;;4909805;29;20529;-82
2023/06/02 08:57:25;;;;;;;18.10;16.90;;;20.10;99.90;;;;;;4908616;29;20719;-82
2023/06/02 08:59:54;;;;;;;18.90;17.83;;;20.20;99.90;;;;;;4907327;29;20485;-82
2023/06/02 09:02:22;;;;;;;19.00;17.90;;;20.20;99.90;;;;;;4910083;29;20460;-82
2023/06/02 09:04:51;;;;;;;18.53;17.33;;;20.20;99.90;;;;;;4909835;29;20466;-82
2023/06/02 09:07:20;;;;;;;17.73;16.83;;;20.30;99.90;;;;;;4909875;29;20489;-82
2023/06/02 09:09:52;;;;;;;18.57;17.60;;;20.40;99.90;;;;;;4909368;29;21026;-82
2023/06/02 09:12:23;;;;;;;18.40;17.40;;;20.40;99.90;;;;;;4900916;29;20485;-82
2023/06/02 09:15:07;;;;;;;18.83;17.73;;;20.40;99.90;;;;;;4908681;29;20454;-82
2023/06/02 09:17:37;;;;;;;18.03;17.13;;;20.40;99.90;;;;;;4910939;29;20455;-83
2023/06/02 09:20:11;;;;;;;18.93;17.83;;;20.50;99.90;;;;;;4909694;29;21038;-82
2023/06/02 09:22:56;;;;;;;18.07;17.07;;;20.50;99.90;;;;;;4908653;29;20474;-82
2023/06/02 09:25:27;;;;;;;19.93;18.80;;;20.60;99.90;;;;;;4909346;29;20466;-82
2023/06/02 09:27:57;;;;;;;20.20;19.07;;;20.60;99.90;;;;;;4905760;29;20549;-82
2023/06/02 09:30:25;;;;;;;19.43;18.23;;;20.70;99.90;;;;;;4910338;29;20458;-82
2023/06/02 09:32:55;;;;;;;17.90;17.00;;;20.70;99.90;;;;;;4902435;29;20554;-82
2023/06/02 09:35:36;;;;;;;16.93;16.17;;;20.70;99.90;;;;;;4910543;29;20839;-82
2023/06/02 09:38:07;;;;;;;18.37;17.37;;;20.80;99.90;;;;;;4908612;29;20517;-83
2023/06/02 09:40:36;;;;;;;18.40;17.30;;;20.80;99.90;;;;;;4910501;29;20454;-83
2023/06/02 09:43:06;;;;;;;19.43;18.10;;;20.80;99.90;;;;;;4909694;29;20489;-82
2023/06/02 09:45:34;;;;;;;19.90;18.60;;;20.90;99.90;;;;;;4909873;29;20536;-82
2023/06/02 09:48:03;;;;;;;17.83;16.47;;;20.90;99.90;;;;;;4923463;29;20497;-82
2023/06/02 09:50:33;;;;;;;19.07;17.97;;;21.00;99.90;;;;;;4908842;29;20466;-82
2023/06/02 09:53:03;;;;;;;17.80;17.00;;;21.00;99.90;;;;;;4924187;29;20522;-83
2023/06/02 09:55:33;;;;;;;18.23;17.40;;;21.10;99.90;;;;;;4910103;29;20869;-82
2023/06/02 09:58:04;;;;;;;18.33;17.43;;;21.10;99.90;;;;;;4908904;29;20545;-82
2023/06/02 10:00:35;;;;;;;17.93;17.00;;;21.10;99.90;;;;;;4909128;29;20807;-82
2023/06/02 10:03:04;;;;;;;17.23;16.43;;;21.20;99.90;;;;;;4909953;29;20482;-83
2023/06/02 10:05:32;;;;;;;17.30;16.30;;;21.20;99.90;;;;;;4907900;29;20469;-81
2023/06/02 10:08:17;;;;;;;17.40;16.60;;;21.20;99.90;;;;;;4908519;29;20998;-82
2023/06/02 10:10:59;;;;;;;17.57;16.67;;;21.20;99.90;;;;;;4908847;29;20450;-83
2023/06/02 10:13:43;;;;;;;18.10;17.20;;;21.30;99.90;;;;;;4909692;29;20481;-82
2023/06/02 10:16:22;;;;;;;18.03;17.13;;;21.40;99.90;;;;;;4910272;29;20454;-82
2023/06/02 10:19:35;;;;;;;17.87;16.97;;;21.20;99.90;;;;;;4910151;29;20475;-81
2023/06/02 10:22:31;;;;;;;17.20;16.30;;;21.30;99.90;;;;;;4910196;29;20537;-82
2023/06/02 10:25:12;;;;;;;16.77;16.00;;;21.30;99.90;;;;;;4908389;29;20550;-82
2023/06/02 10:27:43;;;;;;;16.67;15.93;;;21.30;99.90;;;;;;4908861;29;20565;-82
2023/06/02 10:30:19;;;;;;;17.47;16.57;;;21.40;99.90;;;;;;4910438;29;20747;-82
2023/06/02 10:32:49;;;;;;;16.73;16.00;;;21.50;99.90;;;;;;4909974;29;20489;-81
2023/06/02 10:35:18;;;;;;;17.33;16.33;;;21.50;99.90;;;;;;4910978;29;20548;-81
2023/06/02 10:37:46;;;;;;;17.60;16.50;;;21.60;99.90;;;;;;4908324;29;20537;-81
2023/06/02 10:40:15;;;;;;;17.70;16.80;;;21.70;99.90;;;;;;4908201;29;20448;-82
2023/06/02 10:43:12;;;;;;;17.37;16.27;;;21.70;99.90;;;;;;4907594;29;20489;-82
2023/06/02 10:45:42;;;;;;;17.97;17.10;;;21.70;99.90;;;;;;4908861;29;20903;-80
2023/06/02 10:48:39;;;;;;;16.93;15.83;;;21.80;99.90;;;;;;4906367;29;20992;-82
2023/06/02 10:51:08;;;;;;;18.17;17.20;;;21.80;99.90;;;;;;4911476;29;20938;-82
2023/06/02 10:54:14;;;;;;;16.37;15.77;;;21.80;99.90;;;;;;4908380;29;20481;-82
2023/06/02 10:56:44;;;;;;;17.10;16.03;;;21.80;99.90;;;;;;4908158;29;20517;-81
2023/06/02 10:59:32;;;;;;;16.60;15.70;;;21.90;99.90;;;;;;4909006;29;20453;-81
2023/06/02 11:02:02;;;;;;;16.90;16.10;;;21.90;99.90;;;;;;4909431;29;20462;-82
2023/06/02 11:04:32;;;;;;;17.23;16.40;;;21.90;99.90;;;;;;4908388;29;20525;-82
2023/06/02 11:07:15;;;;;;;16.47;15.67;;;22.00;99.90;;;;;;4909688;29;21169;-82
2023/06/02 11:09:43;;;;;;;16.20;15.37;;;22.00;99.90;;;;;;4907402;29;20489;-82
2023/06/02 11:12:12;;;;;;;15.77;15.07;;;22.00;99.90;;;;;;4909302;29;20473;-83
2023/06/02 11:15:18;;;;;;;17.37;16.40;;;21.90;99.90;;;;;;4909781;29;20488;-81
2023/06/02 11:17:48;;;;;;;15.87;15.27;;;22.00;99.90;;;;;;4908182;29;20454;-81
2023/06/02 11:20:17;;;;;;;17.13;16.00;;;22.10;99.90;;;;;;4908271;29;21279;-81
2023/06/02 11:22:46;;;;;;;16.87;15.80;;;22.00;99.90;;;;;;4908058;29;20480;-82
2023/06/02 11:25:16;;;;;;;16.20;15.37;;;22.20;99.90;;;;;;4899983;29;20481;-82
2023/06/02 11:27:46;;;;;;;16.80;16.00;;;22.20;99.90;;;;;;4907086;29;20481;-82
2023/06/02 11:30:16;;;;;;;17.30;16.40;;;22.20;99.90;;;;;;4908500;29;21286;-82
2023/06/02 11:32:47;;;;;;;16.03;15.10;;;22.20;99.90;;;;;;4908762;29;21102;-82
2023/06/02 11:35:20;;;;;;;15.93;15.13;;;22.20;99.90;;;;;;4909472;29;21096;-82
2023/06/02 11:38:02;;;;;;;15.50;14.80;;;22.20;99.90;;;;;;4907006;29;20833;-82
2023/06/02 11:40:31;;;;;;;15.03;14.43;;;22.20;99.90;;;;;;4907284;29;20931;-82
2023/06/02 11:42:59;;;;;;;14.50;13.90;;;22.30;99.90;;;;;;4908300;29;20569;-81
2023/06/02 11:45:28;;;;;;;14.90;14.10;;;22.30;99.90;;;;;;4908540;29;20481;-81
2023/06/02 11:47:58;;;;;;;15.40;14.67;;;22.40;99.90;;;;;;4909768;29;20468;-82
2023/06/02 11:50:28;;;;;;;16.20;15.30;;;22.40;99.90;;;;;;4907031;29;20916;-81
2023/06/02 11:52:56;;;;;;;16.60;15.90;;;22.50;99.90;;;;;;4909287;29;20521;-82
2023/06/02 11:55:28;;;;;;;17.07;16.23;;;22.50;99.90;;;;;;4907730;29;20481;-82
2023/06/02 11:58:20;;;;;;;16.30;15.30;;;22.50;99.90;;;;;;4908801;29;20454;-81
2023/06/02 12:00:48;;;;;;;16.70;15.90;;;22.50;99.90;;;;;;4907844;29;20454;-82
2023/06/02 12:03:17;;;;;;;15.73;15.00;;;22.50;99.90;;;;;;4909275;29;20477;-82
2023/06/02 12:05:49;;;;;;;15.00;14.40;;;22.50;99.90;;;;;;4907143;29;21003;-81
2023/06/02 12:08:22;;;;;;;15.83;15.03;;;22.60;99.90;;;;;;4908895;29;20893;-82
2023/06/02 12:10:51;;;;;;;15.43;14.73;;;22.60;99.90;;;;;;4908600;29;20473;-82
2023/06/02 12:13:27;;;;;;;16.10;15.37;;;22.60;99.90;;;;;;4907765;29;20484;-81
2023/06/02 12:15:56;;;;;;;15.43;14.73;;;22.70;99.90;;;;;;4909753;29;20536;-82
2023/06/02 12:18:31;;;;;;;15.73;15.03;;;22.60;99.90;;;;;;4908353;29;20461;-82
2023/06/02 12:21:01;;;;;;;16.10;15.30;;;22.70;99.90;;;;;;4908107;29;20527;-81
2023/06/02 12:23:46;;;;;;;14.73;14.13;;;22.70;99.90;;;;;;4907408;29;20484;-82
2023/06/02 12:26:15;;;;;;;15.53;14.93;;;22.70;99.90;;;;;;4908436;29;20597;-82
2023/06/02 12:28:43;;;;;;;14.67;14.07;;;22.70;99.90;;;;;;4906898;29;20549;-82
2023/06/02 12:31:12;;;;;;;15.57;14.70;;;22.80;99.90;;;;;;4906697;29;20580;-82
2023/06/02 12:33:40;;;;;;;14.80;14.10;;;22.80;99.90;;;;;;4907008;29;20524;-82
2023/06/02 12:36:10;;;;;;;14.80;14.27;;;22.90;99.90;;;;;;4906531;29;20461;-82
2023/06/02 12:38:39;;;;;;;14.43;13.83;;;22.90;99.90;;;;;;4904735;29;21048;-83
2023/06/02 12:41:10;;;;;;;15.10;14.40;;;22.90;99.90;;;;;;4907397;29;20998;-83
2023/06/02 12:43:40;;;;;;;14.63;14.00;;;22.90;99.90;;;;;;4908182;29;21189;-82